Time;durP1;ratioP1;P1;durP2;ratioP2;P2;SDS_P1;SDS_P2;PMS_P1;PMS_P2;Temp;Humidity;BMP_temperature;BMP_pressure;BME280_temperature;BME280_humidity;BME280_pressure;Samples;Min_cycle;Max_cycle;Signal;HPM_P1;HPM_P2
2023/04/23 00:00:33;;;;;;;;;;;;;;;;;;6315345;28;19979;-72
2023/04/23 00:03:37;;;;;;;;;;;;;;;;;;6318649;28;19987;-74
2023/04/23 00:06:43;;;;;;;;;;;;;;;;;;6338128;28;20233;-72
2023/04/23 00:09:49;;;;;;;;;;;;;;;;;;6334748;28;19983;-74
2023/04/23 00:12:54;;;;;;;;;;;;;;;;;;6328364;28;19978;-74
2023/04/23 00:16:01;;;;;;;;;;;;;;;;;;6336966;28;19975;-72
2023/04/23 00:19:06;;;;;;;;;;;;;;;;;;6338066;28;19983;-73
2023/04/23 00:22:13;;;;;;;;;;;;;;;;;;6338284;28;20204;-73
2023/04/23 00:25:19;;;;;;;;;;;;;;;;;;6337612;28;20018;-73
2023/04/23 00:28:24;;;;;;;;;;;;;;;;;;6337602;28;19979;-73
2023/04/23 00:31:29;;;;;;;;;;;;;;;;;;6338064;28;20153;-74
2023/04/23 00:34:34;;;;;;;;;;;;;;;;;;6337491;28;19982;-73
2023/04/23 00:37:39;;;;;;;;;;;;;;;;;;6338212;28;19983;-73
2023/04/23 00:40:45;;;;;;;2.10;1.60;;;;;;;;;;6318908;28;20265;-72
2023/04/23 00:43:52;;;;;;;;;;;;;;;;;;6336186;28;20392;-72
2023/04/23 00:46:57;;;;;;;;;;;;;;;;;;6337881;28;19979;-75
2023/04/23 00:50:02;;;;;;;;;;;;;;;;;;6337457;28;19979;-73
2023/04/23 00:53:07;;;;;;;;;;;;;;;;;;6337373;28;19979;-73
2023/04/23 00:56:14;;;;;;;;;;;;;;;;;;6338002;28;19978;-72
2023/04/23 00:59:18;;;;;;;;;;;;;;;;;;6337380;28;20194;-72
2023/04/23 01:02:25;;;;;;;;;;;;;;;;;;6336161;28;19979;-73
2023/04/23 01:05:30;;;;;;;;;;;;;;;;;;6336781;28;19979;-73
2023/04/23 01:08:35;;;;;;;;;;;;;;;;;;6336742;28;19986;-73
2023/04/23 01:11:42;;;;;;;;;;;;;;;;;;6323221;28;19983;-73
2023/04/23 01:14:47;;;;;;;;;;;;;;;;;;6336242;28;19987;-73
2023/04/23 01:17:52;;;;;;;;;;;;;;;;;;6336373;28;20147;-73
2023/04/23 01:20:57;;;;;;;;;;;;;;;;;;6336600;28;19982;-71
2023/04/23 01:24:03;;;;;;;;;;;;;;;;;;6335948;28;20156;-73
2023/04/23 01:27:10;;;;;;;;;;;;;;;;;;6335736;28;20252;-73
2023/04/23 01:30:14;;;;;;;;;;;;;;;;;;6336230;28;19991;-74
2023/04/23 01:33:19;;;;;;;;;;;;;;;;;;6336057;28;19979;-73
2023/04/23 01:36:24;;;;;;;;;;;;;;;;;;6336825;28;19988;-72
2023/04/23 01:39:31;;;;;;;;;;;;;;;;;;6335425;28;19982;-74
2023/04/23 01:42:36;;;;;;;;;;;;;;;;;;6336075;28;19983;-74
2023/04/23 01:45:41;;;;;;;;;;;;;;;;;;6335786;28;20240;-73
2023/04/23 01:48:46;;;;;;;;;;;;;;;;;;6335048;28;19978;-74
2023/04/23 01:51:51;;;;;;;;;;;;;;;;;;6336264;28;20152;-74
2023/04/23 01:54:57;;;;;;;;;;;;;;;;;;6317268;28;19986;-74
2023/04/23 01:58:02;;;;;;;;;;;;;;;;;;6334569;28;19979;-73
2023/04/23 02:01:06;;;;;;;;;;;;;;;;;;6335587;28;19979;-74
2023/04/23 02:04:12;;;;;;;;;;;;;;;;;;6335216;28;19988;-72
2023/04/23 02:07:17;;;;;;;;;;;;;;;;;;6334824;28;20271;-75
2023/04/23 02:10:24;;;;;;;;;;;;;;;;;;6310511;28;19983;-73
2023/04/23 02:13:28;;;;;;;;;;;;;;;;;;6312717;28;19994;-72
2023/04/23 02:16:33;;;;;;;;;;;;;;;;;;6334361;28;19983;-73
2023/04/23 02:19:38;;;;;;;;;;;;;;;;;;6333641;28;19923;-72
2023/04/23 02:22:43;;;;;;;;;;;;;;;;;;6334237;28;20165;-72
2023/04/23 02:25:49;;;;;;;;;;;;;;;;;;6334112;28;19979;-73
2023/04/23 02:28:54;;;;;;;;;;;;;;;;;;6333532;28;19979;-72
2023/04/23 02:31:59;;;;;;;;;;;;;;;;;;6334194;28;19979;-72
2023/04/23 02:35:05;;;;;;;3.08;1.80;;;;;;;;;;6336274;28;20276;-72
2023/04/23 02:38:13;;;;;;;2.42;2.10;;;;;;;;;;6334280;28;20589;-72
2023/04/23 02:41:20;;;;;;;2.22;1.95;;;;;;;;;;6335124;28;20305;-74
2023/04/23 02:44:25;;;;;;;3.45;2.10;;;;;;;;;;6334365;28;20289;-73
2023/04/23 02:47:30;;;;;;;2.45;2.17;;;;;;;;;;6334530;28;20301;-73
2023/04/23 02:50:37;;;;;;;3.28;2.28;;;;;;;;;;6333974;28;20570;-73
2023/04/23 02:53:42;;;;;;;;;;;;;;;;;;6334454;28;20293;-73
2023/04/23 02:56:49;;;;;;;2.30;2.00;;;;;;;;;;6317120;28;19987;-73
2023/04/23 02:59:54;;;;;;;2.20;2.00;;;;;;;;;;6315801;28;20293;-74
2023/04/23 03:03:06;;;;;;;;;;;;;;;;;;6302416;28;20108;-72
2023/04/23 03:06:12;;;;;;;;;;;;;;;;;;6311490;28;19987;-73
2023/04/23 03:09:16;;;;;;;;;;;;;;;;;;6334735;28;19983;-72
2023/04/23 03:12:23;;;;;;;3.77;2.13;;;;;;;;;;6326603;28;19979;-73
2023/04/23 03:15:29;;;;;;;3.58;2.35;;;;;;;;;;6335554;28;20104;-73
2023/04/23 03:18:34;;;;;;;;;;;;;;;;;;6333095;28;20111;-73
2023/04/23 03:21:39;;;;;;;;;;;;;;;;;;6294514;28;19972;-72
2023/04/23 03:24:45;;;;;;;;;;;;;;;;;;6291784;28;19983;-73
2023/04/23 03:27:52;;;;;;;;;;;;;;;;;;6291438;28;20152;-72
2023/04/23 03:30:57;;;;;;;;;;;;;;;;;;6291725;28;19979;-75
2023/04/23 03:34:02;;;;;;;;;;;;;;;;;;6308213;28;19979;-74
2023/04/23 03:37:10;;;;;;;;;;;;;;;;;;6307030;28;19991;-73
2023/04/23 03:40:16;;;;;;;;;;;;;;;;;;6316213;28;19978;-71
2023/04/23 03:43:25;;;;;;;;;;;;;;;;;;6332709;28;19982;-73
2023/04/23 03:47:02;;;;;;;;;;;;;;;;;;6329546;28;20220;-74
2023/04/23 03:50:09;;;;;;;;;;;;;;;;;;6332750;28;20168;-72
2023/04/23 03:53:16;;;;;;;;;;;;;;;;;;6333526;28;20275;-72
2023/04/23 03:56:41;;;;;;;;;;;;;;;;;;6332761;28;19995;-73
2023/04/23 04:00:03;;;;;;;;;;;;;;;;;;6333101;28;20010;-73
2023/04/23 04:03:16;;;;;;;;;;;;;;;;;;6332273;28;20139;-73
2023/04/23 04:06:21;;;;;;;;;;;;;;;;;;6332891;28;19986;-73
2023/04/23 04:09:26;;;;;;;;;;;;;;;;;;6332101;28;20013;-73
2023/04/23 04:12:31;;;;;;;;;;;;;;;;;;6321442;28;19979;-73
2023/04/23 04:15:37;;;;;;;;;;;;;;;;;;6332170;28;19995;-72
2023/04/23 04:18:42;;;;;;;;;;;;;;;;;;6336565;28;19980;-72
2023/04/23 04:21:46;;;;;;;;;;;;;;;;;;6339027;28;19971;-73
2023/04/23 04:24:51;;;;;;;;;;;;;;;;;;6338511;28;19987;-72
2023/04/23 04:27:57;;;;;;;;;;;;;;;;;;6338122;28;19982;-72
2023/04/23 04:31:04;;;;;;;;;;;;;;;;;;6338787;28;19986;-72
2023/04/23 04:34:13;;;;;;;;;;;;;;;;;;6338286;28;19991;-72
2023/04/23 04:37:19;;;;;;;;;;;;;;;;;;6338636;28;20263;-73
2023/04/23 04:40:25;;;;;;;;;;;;;;;;;;6337760;28;19991;-72
2023/04/23 04:43:29;;;;;;;;;;;;;;;;;;6337701;28;19978;-73
2023/04/23 04:46:39;;;;;;;;;;;;;;;;;;6338605;28;19990;-72
2023/04/23 04:49:44;;;;;;;;;;;;;;;;;;6338031;28;20003;-73
2023/04/23 04:52:49;;;;;;;;;;;;;;;;;;6337700;28;19991;-72
2023/04/23 04:55:53;;;;;;;;;;;;;;;;;;6337851;28;19974;-73
2023/04/23 04:58:58;;;;;;;;;;;;;;;;;;6337733;28;19979;-73
2023/04/23 05:02:04;;;;;;;;;;;;;;;;;;6338286;28;19982;-73
2023/04/23 05:05:09;;;;;;;;;;;;;;;;;;6336819;28;20252;-72
2023/04/23 05:08:15;;;;;;;;;;;;;;;;;;6337676;28;20003;-73
2023/04/23 05:11:20;;;;;;;;;;;;;;;;;;6324444;28;19987;-72
2023/04/23 05:14:26;;;;;;;;;;;;;;;;;;6337332;28;19978;-72
2023/04/23 05:17:32;;;;;;;;;;;;;;;;;;6337058;28;19979;-72
2023/04/23 05:20:37;;;;;;;;;;;;;;;;;;6337074;28;19974;-72
2023/04/23 05:23:42;;;;;;;;;;;;;;;;;;6336316;28;19990;-72
2023/04/23 05:26:46;;;;;;;;;;;;;;;;;;6337448;28;19984;-72
2023/04/23 05:29:51;;;;;;;;;;;;;;;;;;6336074;28;19979;-71
2023/04/23 05:32:57;;;;;;;;;;;;;;;;;;6336600;28;19987;-74
2023/04/23 05:36:02;;;;;;;;;;;;;;;;;;6336768;28;19983;-73
2023/04/23 05:39:07;;;;;;;;;;;;;;;;;;6335575;28;19978;-72
2023/04/23 05:42:12;;;;;;;;;;;;;;;;;;6336885;28;20227;-73
2023/04/23 05:45:17;;;;;;;;;;;;;;;;;;6336433;28;20015;-73
2023/04/23 05:48:23;;;;;;;;;;;;;;;;;;6336334;28;20007;-74
2023/04/23 05:51:28;;;;;;;;;;;;;;;;;;6336567;28;19998;-72
2023/04/23 05:54:33;;;;;;;;;;;;;;;;;;6336093;28;19987;-73
2023/04/23 05:57:37;;;;;;;;;;;;;;;;;;6335406;28;19986;-75
2023/04/23 06:00:42;;;;;;;;;;;;;;;;;;6336213;28;20002;-73
2023/04/23 06:03:48;;;;;;;;;;;;;;;;;;6334214;28;19987;-72
2023/04/23 06:06:53;;;;;;;;;;;;;;;;;;6336332;28;19990;-72
2023/04/23 06:09:58;;;;;;;;;;;;;;;;;;6331204;28;20140;-72
2023/04/23 06:13:03;;;;;;;;;;;;;;;;;;6327111;28;20275;-73
2023/04/23 06:16:08;;;;;;;;;;;;;;;;;;6336203;28;19983;-74
2023/04/23 06:19:15;;;;;;;;;;;;;;;;;;6335586;28;19984;-73
2023/04/23 06:22:19;;;;;;;;;;;;;;;;;;6336029;28;19970;-72
2023/04/23 06:25:24;;;;;;;;;;;;;;;;;;6334403;28;19991;-73
2023/04/23 06:28:29;;;;;;;;;;;;;;;;;;6335799;28;19979;-73
2023/04/23 06:32:01;;;;;;;;;;;;;;;;;;6319823;28;19975;-73
2023/04/23 06:35:08;;;;;;;;;;;;;;;;;;6335493;28;20170;-73
2023/04/23 06:38:13;;;;;;;;;;;;;;;;;;6335487;28;20180;-72
2023/04/23 06:41:18;;;;;;;;;;;;;;;;;;6335789;28;19982;-73
2023/04/23 06:44:23;;;;;;;;;;;;;;;;;;6334017;28;19979;-72
2023/04/23 06:47:28;;;;;;;;;;;;;;;;;;6335681;28;19982;-72
2023/04/23 06:50:34;;;;;;;;;;;;;;;;;;6334701;28;19979;-73
2023/04/23 06:53:39;;;;;;;;;;;;;;;;;;6334640;28;19975;-72
2023/04/23 06:56:44;;;;;;;;;;;;;;;;;;6335627;28;19975;-73
2023/04/23 06:59:49;;;;;;;;;;;;;;;;;;6334435;28;20237;-71
2023/04/23 07:02:56;;;;;;;;;;;;;;;;;;6332788;28;20171;-72
2023/04/23 07:06:02;;;;;;;;;;;;;;;;;;6309886;28;19979;-73
2023/04/23 07:09:07;;;;;;;;;;;;;;;;;;6308608;28;19991;-74
2023/04/23 07:12:12;;;;;;;;;;;;;;;;;;6292780;28;19987;-73
2023/04/23 07:15:17;;;;;;;;;;;;;;;;;;6309679;28;19987;-73
2023/04/23 07:18:22;;;;;;;;;;;;;;;;;;6308815;28;19971;-73
2023/04/23 07:21:28;;;;;;;;;;;;;;;;;;6309952;28;19983;-74
2023/04/23 07:24:33;;;;;;;;;;;;;;;;;;6309657;28;19979;-73
2023/04/23 07:27:37;;;;;;;;;;;;;;;;;;6310722;28;19976;-73
2023/04/23 07:30:42;;;;;;;;;;;;;;;;;;6303496;28;19977;-73
2023/04/23 07:33:47;;;;;;;;;;;;;;;;;;6284865;28;20247;-73
2023/04/23 07:36:55;;;;;;;;;;;;;;;;;;6285177;28;19984;-72
2023/04/23 07:40:01;;;;;;;;;;;;;;;;;;6284698;28;19983;-74
2023/04/23 07:43:05;;;;;;;;;;;;;;;;;;6300163;28;20157;-73
2023/04/23 07:46:12;;;;;;;;;;;;;;;;;;6285312;28;20000;-73
2023/04/23 07:49:17;;;;;;;;;;;;;;;;;;6285030;28;19984;-72
2023/04/23 07:52:23;;;;;;;;;;;;;;;;;;6286057;28;19983;-73
2023/04/23 07:55:28;;;;;;;;;;;;;;;;;;6289556;28;19984;-73
2023/04/23 07:58:34;;;;;;;;;;;;;;;;;;6304862;28;20261;-72
2023/04/23 08:01:40;;;;;;;;;;;;;;;;;;6290154;28;19983;-73
2023/04/23 08:04:45;;;;;;;;;;;;;;;;;;6304239;28;20260;-73
2023/04/23 08:07:52;;;;;;;;;;;;;;;;;;6314027;28;19979;-72
2023/04/23 08:10:57;;;;;;;;;;;;;;;;;;6326852;28;19983;-74
2023/04/23 08:14:01;;;;;;;;;;;;;;;;;;6338570;28;19986;-73
2023/04/23 08:17:06;;;;;;;;;;;;;;;;;;6339705;28;20165;-74
2023/04/23 08:20:12;;;;;;;;;;;;;;;;;;6338915;28;19983;-72
2023/04/23 08:23:19;;;;;;;;;;;;;;;;;;6338402;28;20077;-71
2023/04/23 08:26:23;;;;;;;;;;;;;;;;;;6339316;28;19975;-73
2023/04/23 08:29:28;;;;;;;;;;;;;;;;;;6338865;28;19975;-73
2023/04/23 08:32:33;;;;;;;;;;;;;;;;;;6342795;28;19974;-73
2023/04/23 08:35:38;;;;;;;;;;;;;;;;;;6343026;28;19978;-73
2023/04/23 08:38:44;;;;;;;;;;;;;;;;;;6338956;28;20129;-72
2023/04/23 08:41:51;;;;;;;;;;;;;;;;;;6338651;28;19979;-72
2023/04/23 08:44:56;;;;;;;;;;;;;;;;;;6338020;28;19983;-74
2023/04/23 08:48:01;;;;;;;;;;;;;;;;;;6337552;28;19983;-73
2023/04/23 08:51:06;;;;;;;;;;;;;;;;;;6338892;28;19979;-73
2023/04/23 08:54:13;;;;;;;;;;;;;;;;;;6337295;28;19983;-74
2023/04/23 08:57:18;;;;;;;;;;;;;;;;;;6338592;28;20011;-74
2023/04/23 09:00:24;;;;;;;;;;;;;;;;;;6337043;28;20252;-72
2023/04/23 09:03:29;;;;;;;;;;;;;;;;;;6336528;28;20148;-72
2023/04/23 09:06:34;;;;;;;;;;;;;;;;;;6319794;28;19975;-72
2023/04/23 09:09:40;;;;;;;;;;;;;;;;;;6319846;28;19974;-73
2023/04/23 09:12:46;;;;;;;;;;;;;;;;;;6336519;28;19979;-72
2023/04/23 09:15:51;;;;;;;;;;;;;;;;;;6337929;28;19979;-74
2023/04/23 09:18:57;;;;;;;;;;;;;;;;;;6337710;28;19980;-72
2023/04/23 09:22:01;;;;;;;;;;;;;;;;;;6338050;28;19975;-73
2023/04/23 09:25:10;;;;;;;;;;;;;;;;;;6335096;28;19971;-73
2023/04/23 09:28:14;;;;;;;;;;;;;;;;;;6338295;28;20126;-72
2023/04/23 09:31:22;;;;;;;;;;;;;;;;;;6337499;28;20007;-72
2023/04/23 09:34:27;;;;;;;;;;;;;;;;;;6337078;28;19979;-74
2023/04/23 09:37:33;;;;;;;;;;;;;;;;;;6337504;28;19978;-72
2023/04/23 09:40:39;;;;;;;;;;;;;;;;;;6337588;28;19979;-72
2023/04/23 09:43:44;;;;;;;;;;;;;;;;;;6336973;28;19987;-72
2023/04/23 09:46:49;;;;;;;;;;;;;;;;;;6336998;28;19978;-74
2023/04/23 09:49:55;;;;;;;;;;;;;;;;;;6336594;28;19983;-73
2023/04/23 09:53:00;;;;;;;;;;;;;;;;;;6336852;28;19979;-74
2023/04/23 09:56:06;;;;;;;;;;;;;;;;;;6337275;28;20141;-72
2023/04/23 09:59:21;;;;;;;;;;;;;;;;;;6336466;28;19983;-71
2023/04/23 10:02:46;;;;;;;;;;;;;;;;;;6336350;28;19976;-70
2023/04/23 10:05:51;;;;;;;;;;;;;;;;;;6336771;28;19998;-73
2023/04/23 10:08:59;;;;;;;;;;;;;;;;;;6336506;28;19992;-76
2023/04/23 10:12:06;;;;;;;;;;;;;;;;;;6323214;28;19979;-73
2023/04/23 10:15:26;;;;;;;;;;;;;;;;;;6334698;28;20019;-74
2023/04/23 10:18:31;;;;;;;;;;;;;;;;;;6317871;28;19983;-74
2023/04/23 10:21:36;;;;;;;;;;;;;;;;;;6336048;28;19979;-75
2023/04/23 10:24:57;;;;;;;;;;;;;;;;;;6335680;28;19991;-74
2023/04/23 10:28:04;;;;;;;;;;;;;;;;;;6335989;28;19987;-75
2023/04/23 10:31:10;;;;;;;;;;;;;;;;;;6336555;28;19975;-76
2023/04/23 10:34:33;;;;;;;;;;;;;;;;;;6336246;28;20163;-74
2023/04/23 10:37:38;;;;;;;;;;;;;;;;;;6317965;28;19983;-75
2023/04/23 10:40:43;;;;;;;;;;;;;;;;;;6336237;28;20210;-73
2023/04/23 10:43:50;;;;;;;;;;;;;;;;;;6335467;28;19987;-75
2023/04/23 10:46:56;;;;;;;;;;;;;;;;;;6336170;28;19975;-74
2023/04/23 10:50:06;;;;;;;;;;;;;;;;;;6335547;28;20267;-71
2023/04/23 10:53:20;;;;;;;;;;;;;;;;;;6335332;28;20115;-71
2023/04/23 10:56:26;;;;;;;;;;;;;;;;;;6335701;28;19939;-72
2023/04/23 10:59:33;;;;;;;;;;;;;;;;;;6335075;28;19983;-72
2023/04/23 11:02:43;;;;;;;;;;;;;;;;;;6335388;28;19979;-73
2023/04/23 11:05:48;;;;;;;;;;;;;;;;;;6334103;28;19982;-71
2023/04/23 11:08:53;;;;;;;;;;;;;;;;;;6335488;28;19994;-71
2023/04/23 11:11:58;;;;;;;;;;;;;;;;;;6335616;28;19986;-72
2023/04/23 11:15:14;;;;;;;;;;;;;;;;;;6334816;28;20014;-72
2023/04/23 11:18:19;;;;;;;;;;;;;;;;;;6333962;28;19974;-71
2023/04/23 11:21:39;;;;;;;;;;;;;;;;;;6317080;28;20002;-73
2023/04/23 11:24:45;;;;;;;;;;;;;;;;;;6334443;28;19987;-71
2023/04/23 11:27:54;;;;;;;;;;;;;;;;;;6333955;28;19982;-73
2023/04/23 11:31:00;;;;;;;;;;;;;;;;;;6335021;28;19983;-73
2023/04/23 11:34:07;;;;;;;;;;;;;;;;;;6333600;28;19982;-72
2023/04/23 11:37:14;;;;;;;;;;;;;;;;;;6335111;28;19975;-70
2023/04/23 11:40:19;;;;;;;;;;;;;;;;;;6335512;28;19983;-72
2023/04/23 11:43:24;;;;;;;;;;;;;;;;;;6334656;28;19987;-72
2023/04/23 11:46:30;;;;;;;;;;;;;;;;;;6334814;28;19974;-72
2023/04/23 11:49:36;;;;;;;;;;;;;;;;;;6334256;28;20018;-73
2023/04/23 11:52:41;;;;;;;;;;;;;;;;;;6334653;28;19971;-71
2023/04/23 11:55:48;;;;;;;;;;;;;;;;;;6335170;28;20271;-71
2023/04/23 11:58:58;;;;;;;;;;;;;;;;;;6334390;28;19990;-72
2023/04/23 12:02:04;;;;;;;;;;;;;;;;;;6334808;28;20226;-73
2023/04/23 12:05:09;;;;;;;;;;;;;;;;;;6333909;28;19986;-72
2023/04/23 12:08:15;;;;;;;;;;;;;;;;;;6334315;28;20138;-72
2023/04/23 12:11:20;;;;;;;;;;;;;;;;;;6334545;28;19983;-71
2023/04/23 12:14:28;;;;;;;;;;;;;;;;;;6334288;28;20143;-71
2023/04/23 12:17:35;;;;;;;;;;;;;;;;;;6334152;28;20228;-72
2023/04/23 12:20:40;;;;;;;;;;;;;;;;;;6334736;28;19975;-71
2023/04/23 12:23:45;;;;;;;;;;;;;;;;;;6334193;28;19987;-72
2023/04/23 12:26:53;;;;;;;;;;;;;;;;;;6333518;28;19988;-71
2023/04/23 12:30:01;;;;;;;;;;;;;;;;;;6334074;28;19975;-73
2023/04/23 12:33:13;;;;;;;;;;;;;;;;;;6331781;28;19991;-72
2023/04/23 12:36:17;;;;;;;;;;;;;;;;;;6334293;28;19982;-72
2023/04/23 12:39:23;;;;;;;;;;;;;;;;;;6336206;28;20078;-72
2023/04/23 12:42:28;;;;;;;;;;;;;;;;;;6339235;28;19987;-72
2023/04/23 12:45:37;;;;;;;;;;;;;;;;;;6338004;28;19983;-73
2023/04/23 12:48:44;;;;;;;;;;;;;;;;;;6338250;28;19987;-72
2023/04/23 12:51:49;;;;;;;;;;;;;;;;;;6338800;28;19974;-72
2023/04/23 12:54:55;;;;;;;;;;;;;;;;;;6337966;28;19994;-71
2023/04/23 12:58:00;;;;;;;;;;;;;;;;;;6337876;28;19991;-72
2023/04/23 13:01:05;;;;;;;;;;;;;;;;;;6338257;28;19979;-71
2023/04/23 13:04:11;;;;;;;;;;;;;;;;;;6337691;28;19975;-72
2023/04/23 13:07:16;;;;;;;;;;;;;;;;;;6338170;28;20268;-72
2023/04/23 13:10:21;;;;;;;;;;;;;;;;;;6319529;28;19987;-73
2023/04/23 13:13:26;;;;;;;;;;;;;;;;;;6337688;28;19984;-72
2023/04/23 13:16:31;;;;;;;;;;;;;;;;;;6320122;28;19991;-72
2023/04/23 13:19:38;;;;;;;;;;;;;;;;;;6337162;28;19982;-72
2023/04/23 13:22:43;;;;;;;;;;;;;;;;;;6337521;28;19986;-72
2023/04/23 13:25:48;;;;;;;;;;;;;;;;;;6338061;28;19994;-72
2023/04/23 13:28:53;;;;;;;;;;;;;;;;;;6337324;28;19998;-72
2023/04/23 13:31:58;;;;;;;;;;;;;;;;;;6337598;28;19975;-71
2023/04/23 13:35:04;;;;;;;;;;;;;;;;;;6336898;28;19979;-73
2023/04/23 13:38:11;;;;;;;;;;;;;;;;;;6337552;28;19984;-72
2023/04/23 13:41:16;;;;;;;;;;;;;;;;;;6338181;28;19983;-72
2023/04/23 13:44:21;;;;;;;;;;;;;;;;;;6337111;28;19974;-73
2023/04/23 13:47:30;;;;;;;;;;;;;;;;;;6338010;28;19979;-72
2023/04/23 13:50:36;;;;;;;;;;;;;;;;;;6337171;28;19976;-71
2023/04/23 13:53:42;;;;;;;;;;;;;;;;;;6338160;28;19983;-74
2023/04/23 13:56:46;;;;;;;;;;;;;;;;;;6337091;28;20129;-72
2023/04/23 13:59:54;;;;;;;;;;;;;;;;;;6336264;28;20209;-73
2023/04/23 14:02:58;;;;;;;;;;;;;;;;;;6336270;28;19991;-72
2023/04/23 14:06:05;;;;;;;;;;;;;;;;;;6311234;28;19995;-72
2023/04/23 14:09:10;;;;;;;;;;;;;;;;;;6310038;28;20244;-71
2023/04/23 14:12:15;;;;;;;;;;;;;;;;;;6311491;28;19983;-74
2023/04/23 14:15:20;;;;;;;;;;;;;;;;;;6311025;28;20407;-72
2023/04/23 14:18:25;;;;;;;;;;;;;;;;;;6310975;28;19995;-71
2023/04/23 14:21:31;;;;;;;;;;;;;;;;;;6310880;28;20240;-73
2023/04/23 14:24:39;;;;;;;;;;;;;;;;;;6310720;28;19984;-74
2023/04/23 14:27:45;;;;;;;;;;;;;;;;;;6311075;28;19979;-74
2023/04/23 14:30:50;;;;;;;;;;;;;;;;;;6310964;28;19983;-73
2023/04/23 14:33:57;;;;;;;;;;;;;;;;;;6310285;28;19979;-72
2023/04/23 14:37:04;;;;;;;;;;;;;;;;;;6310919;28;19987;-72
2023/04/23 14:40:18;;;;;;;;;;;;;;;;;;6310640;28;19984;-71
2023/04/23 14:43:22;;;;;;;;;;;;;;;;;;6310645;28;19983;-73
2023/04/23 14:46:28;;;;;;;;;;;;;;;;;;6311077;28;19971;-72
2023/04/23 14:49:32;;;;;;;;;;;;;;;;;;6309179;28;19979;-72
2023/04/23 14:52:39;;;;;;;;;;;;;;;;;;6310001;28;19987;-72
2023/04/23 14:55:43;;;;;;;;;;;;;;;;;;6310407;28;19987;-72
2023/04/23 14:58:48;;;;;;;;;;;;;;;;;;6309876;28;19992;-72
2023/04/23 15:01:55;;;;;;;;;;;;;;;;;;6310365;28;19975;-72
2023/04/23 15:05:00;;;;;;;;;;;;;;;;;;6326136;28;20268;-73
2023/04/23 15:08:06;;;;;;;;;;;;;;;;;;6335182;28;19979;-72
2023/04/23 15:11:12;;;;;;;;;;;;;;;;;;6334031;28;19983;-72
2023/04/23 15:14:25;;;;;;;;;;;;;;;;;;6292278;28;19983;-71
2023/04/23 15:17:30;;;;;;;;;;;;;;;;;;6310581;28;19979;-72
2023/04/23 15:20:35;;;;;;;;;;;;;;;;;;6308942;28;19979;-72
2023/04/23 15:23:41;;;;;;;;;;;;;;;;;;6309123;28;20211;-74
2023/04/23 15:26:47;;;;;;;;;;;;;;;;;;6310099;28;19975;-72
2023/04/23 15:29:52;;;;;;;;;;;;;;;;;;6310039;28;19987;-73
2023/04/23 15:32:57;;;;;;;;;;;;;;;;;;6310092;28;20275;-73
2023/04/23 15:36:02;;;;;;;;;;;;;;;;;;6310302;28;19983;-72
2023/04/23 15:39:09;;;;;;;;;;;;;;;;;;6308180;28;19983;-72
2023/04/23 15:42:16;;;;;;;;;;;;;;;;;;6310390;28;20116;-72
2023/04/23 15:45:21;;;;;;;;;;;;;;;;;;6309615;28;19984;-72
2023/04/23 15:48:26;;;;;;;;;;;;;;;;;;6291330;28;20268;-72
2023/04/23 15:51:31;;;;;;;;;;;;;;;;;;6309989;28;20000;-72
2023/04/23 15:54:37;;;;;;;;;;;;;;;;;;6310215;28;19979;-72
2023/04/23 15:57:42;;;;;;;;;;;;;;;;;;6308863;28;19980;-75
2023/04/23 16:00:47;;;;;;;;;;;;;;;;;;6310106;28;20138;-72
2023/04/23 16:03:52;;;;;;;;;;;;;;;;;;6315037;28;19982;-72
2023/04/23 16:07:13;;;;;;;;;;;;;;;;;;6334818;28;19982;-73
2023/04/23 16:10:19;;;;;;;;;;;;;;;;;;6326913;28;19988;-73
2023/04/23 16:13:26;;;;;;;;;;;;;;;;;;6329976;28;20155;-75
2023/04/23 16:16:31;;;;;;;;;;;;;;;;;;6340387;28;19979;-75
2023/04/23 16:19:36;;;;;;;;;;;;;;;;;;6338286;28;20252;-74
2023/04/23 16:22:40;;;;;;;;;;;;;;;;;;6340073;28;20014;-73
2023/04/23 16:25:46;;;;;;;;;;;;;;;;;;6339696;28;19987;-73
2023/04/23 16:28:52;;;;;;;;;;;;;;;;;;6339067;28;20165;-74
2023/04/23 16:32:16;;;;;;;;;;;;;;;;;;6339639;28;19979;-72
2023/04/23 16:35:21;;;;;;;;;;;;;;;;;;6338520;28;19979;-73
2023/04/23 16:38:26;;;;;;;;;;;;;;;;;;6338834;28;20220;-73
2023/04/23 16:41:33;;;;;;;;;;;;;;;;;;6338862;28;19975;-75
2023/04/23 16:44:37;;;;;;;;;;;;;;;;;;6338710;28;19998;-74
2023/04/23 16:47:43;;;;;;;;;;;;;;;;;;6338924;28;19984;-72
2023/04/23 16:50:47;;;;;;;;;;;;;;;;;;6339024;28;19990;-74
2023/04/23 16:53:52;;;;;;;;;;;;;;;;;;6338453;28;20060;-74
2023/04/23 16:56:59;;;;;;;;;;;;;;;;;;6338809;28;19979;-73
2023/04/23 17:00:04;;;;;;;;;;;;;;;;;;6337986;28;19979;-74
2023/04/23 17:03:10;;;;;;;;;;;;;;;;;;6336479;28;20964;-74
2023/04/23 17:06:19;;;;;;;;;;;;;;;;;;6338500;28;19996;-73
2023/04/23 17:09:24;;;;;;;;;;;;;;;;;;6337476;28;19987;-72
2023/04/23 17:12:30;;;;;;;;;;;;;;;;;;6311808;28;20178;-71
2023/04/23 17:15:35;;;;;;;;;;;;;;;;;;6337537;28;20155;-73
2023/04/23 17:18:40;;;;;;;;;;;;;;;;;;6337916;28;20135;-73
2023/04/23 17:21:44;;;;;;;;;;;;;;;;;;6320151;28;19979;-72
2023/04/23 17:24:49;;;;;;;;;;;;;;;;;;6336659;28;19978;-72
2023/04/23 17:27:55;;;;;;;;;;;;;;;;;;6337610;28;19983;-73
2023/04/23 17:31:01;;;;;;;;;;;;;;;;;;6338182;28;19979;-75
2023/04/23 17:34:06;;;;;;;;;;;;;;;;;;6337587;28;20159;-73
2023/04/23 17:37:11;;;;;;;;;;;;;;;;;;6338000;28;19987;-74
2023/04/23 17:40:16;;;;;;;;;;;;;;;;;;6337003;28;20257;-72
2023/04/23 17:43:23;;;;;;;;;;;;;;;;;;6337114;28;19987;-75
2023/04/23 17:46:27;;;;;;;;;;;;;;;;;;6337874;28;19979;-75
2023/04/23 17:49:32;;;;;;;;;;;;;;;;;;6336812;28;19979;-73
2023/04/23 17:52:39;;;;;;;;;;;;;;;;;;6337048;28;19984;-72
2023/04/23 17:55:43;;;;;;;;;;;;;;;;;;6337696;28;19980;-73
2023/04/23 17:58:50;;;;;;;;;;;;;;;;;;6336900;28;19987;-74
2023/04/23 18:01:55;;;;;;;;;;;;;;;;;;6337250;28;19983;-74
2023/04/23 18:05:00;;;;;;;;;;;;;;;;;;6335873;28;19979;-76
2023/04/23 18:08:06;;;;;;;;;;;;;;;;;;6335487;28;19982;-73
2023/04/23 18:11:11;;;;;;;;;;;;;;;;;;6323239;28;19991;-74
2023/04/23 18:14:18;;;;;;;;;;;;;;;;;;6336446;28;19982;-73
2023/04/23 18:17:23;;;;;;;;;;;;;;;;;;6335755;28;19988;-73
2023/04/23 18:20:29;;;;;;;;;;;;;;;;;;6336009;28;19979;-73
2023/04/23 18:23:34;;;;;;;;;;;;;;;;;;6334587;28;19979;-73
2023/04/23 18:26:39;;;;;;;;;;;;;;;;;;6337005;28;19975;-73
2023/04/23 18:29:45;;;;;;;;;;;;;;;;;;6335931;28;19983;-72
2023/04/23 18:32:56;;;;;;;;;;;;;;;;;;6335616;28;19988;-75
2023/04/23 18:36:02;;;;;;;;;;;;;;;;;;6336123;28;19978;-74
2023/04/23 18:39:07;;;;;;;;;;;;;;;;;;6334605;28;20223;-72
2023/04/23 18:42:12;;;;;;;;;;;;;;;;;;6335983;28;19990;-73
2023/04/23 18:45:18;;;;;;;;;;;;;;;;;;6335740;28;19984;-73
2023/04/23 18:48:37;;;;;;;;;;;;;;;;;;6335646;28;20271;-72
2023/04/23 18:51:43;;;;;;;;;;;;;;;;;;6334942;28;19990;-73
2023/04/23 18:54:48;;;;;;;;;;;;;;;;;;6335917;28;19998;-73
2023/04/23 18:57:54;;;;;;;;;;;;;;;;;;6335120;28;19975;-72
2023/04/23 19:01:01;;;;;;;;;;;;;;;;;;6335723;28;19980;-75
2023/04/23 19:04:05;;;;;;;;;;;;;;;;;;6334978;28;20152;-73
2023/04/23 19:07:12;;;;;;;;;;;;;;;;;;6336790;28;19971;-72
2023/04/23 19:10:17;;;;;;;;;;;;;;;;;;6335178;28;19979;-72
2023/04/23 19:13:22;;;;;;;;;;;;;;;;;;6315274;28;19991;-71
2023/04/23 19:16:28;;;;;;;;;;;;;;;;;;6310566;28;19979;-73
2023/04/23 19:19:34;;;;;;;;;;;;;;;;;;6310638;28;19983;-71
2023/04/23 19:22:39;;;;;;;;;;;;;;;;;;6294014;28;19995;-72
2023/04/23 19:25:46;;;;;;;;;;;;;;;;;;6311026;28;19976;-73
2023/04/23 19:28:51;;;;;;;;;;;;;;;;;;6311741;28;19983;-71
2023/04/23 19:31:57;;;;;;;;;;;;;;;;;;6300837;28;19984;-72
2023/04/23 19:35:03;;;;;;;;;;;;;;;;;;6286406;28;19995;-74
2023/04/23 19:38:09;;;;;;;;;;;;;;;;;;6286313;28;20136;-71
2023/04/23 19:41:14;;;;;;;;;;;;;;;;;;6286397;28;19975;-72
2023/04/23 19:44:19;;;;;;;;;;;;;;;;;;6285709;28;19996;-72
2023/04/23 19:47:25;;;;;;;;;;;;;;;;;;6286633;28;19976;-71
2023/04/23 19:50:30;;;;;;;;;;;;;;;;;;6290574;28;20252;-71
2023/04/23 19:53:35;;;;;;;;;;;;;;;;;;6291070;28;19989;-71
2023/04/23 19:56:40;;;;;;;;;;;;;;;;;;6290977;28;20112;-71
2023/04/23 19:59:45;;;;;;;;;;;;;;;;;;6290733;28;19983;-72
2023/04/23 20:02:51;;;;;;;;;;;;;;;;;;6289888;28;20149;-74
2023/04/23 20:05:57;;;;;;;;;;;;;;;;;;6312204;28;19983;-71
2023/04/23 20:09:06;;;;;;;;;;;;;;;;;;6314666;28;19991;-73
2023/04/23 20:12:12;;;;;;;;;;;;;;;;;;6338227;28;19986;-74
2023/04/23 20:15:20;;;;;;;;;;;;;;;;;;6339872;28;19975;-73
2023/04/23 20:18:27;;;;;;;;;;;;;;;;;;6339944;28;19975;-74
2023/04/23 20:21:32;;;;;;;;;;;;;;;;;;6339811;28;19975;-73
2023/04/23 20:24:39;;;;;;;;;;;;;;;;;;6340597;28;19974;-71
2023/04/23 20:27:43;;;;;;;;;;;;;;;;;;6339589;28;20260;-74
2023/04/23 20:30:48;;;;;;;;;;;;;;;;;;6338711;28;19979;-74
2023/04/23 20:33:54;;;;;;;;;;;;;;;;;;6340174;28;20144;-71
2023/04/23 20:37:00;;;;;;;;;;;;;;;;;;6340651;28;19971;-72
2023/04/23 20:40:06;;;;;;;;;;;;;;;;;;6338266;28;19986;-73
2023/04/23 20:43:12;;;;;;;;;;;;;;;;;;6338525;28;19983;-71
2023/04/23 20:46:17;;;;;;;;;;;;;;;;;;6339428;28;19971;-71
2023/04/23 20:49:24;;;;;;;;;;;;;;;;;;6338120;28;19991;-73
2023/04/23 20:52:28;;;;;;;;;;;;;;;;;;6338696;28;19982;-73
2023/04/23 20:55:33;;;;;;;;;;;;;;;;;;6338273;28;19983;-71
2023/04/23 20:58:38;;;;;;;;;;;;;;;;;;6336385;28;19983;-73
2023/04/23 21:01:43;;;;;;;;;;;;;;;;;;6337954;28;20273;-74
2023/04/23 21:04:49;;;;;;;;;;;;;;;;;;6337276;28;19971;-73